createdAt,value
2022-11-17T00:01:06.692Z,6.33
2022-11-17T00:03:35.665Z,5.30
2022-11-17T00:06:04.836Z,4.67
2022-11-17T00:08:33.369Z,4.63
2022-11-17T00:11:01.506Z,4.80
2022-11-17T00:13:45.245Z,6.80
2022-11-17T00:16:17.262Z,4.10
2022-11-17T00:19:18.359Z,4.17
2022-11-17T00:21:47.246Z,4.50
2022-11-17T00:24:21.259Z,4.27
2022-11-17T00:27:04.269Z,4.57
2022-11-17T00:29:39.013Z,4.47
2022-11-17T00:32:25.483Z,4.60
2022-11-17T00:34:56.431Z,4.50
2022-11-17T00:37:25.273Z,3.60
2022-11-17T00:39:59.286Z,3.20
2022-11-17T00:42:28.754Z,3.73
2022-11-17T00:44:58.540Z,3.57
2022-11-17T00:47:27.254Z,3.10
2022-11-17T00:49:55.332Z,3.57
2022-11-17T00:52:24.265Z,3.20
2022-11-17T00:54:52.368Z,3.17
2022-11-17T00:57:21.057Z,3.17
2022-11-17T00:59:52.379Z,3.33
2022-11-17T01:02:22.296Z,3.07
2022-11-17T01:04:50.439Z,3.43
2022-11-17T01:07:18.454Z,3.00
2022-11-17T01:09:50.228Z,3.07
2022-11-17T01:12:20.382Z,2.90
2022-11-17T01:14:48.532Z,3.07
2022-11-17T01:17:16.520Z,5.50
2022-11-17T01:19:46.118Z,2.97
2022-11-17T01:25:06.788Z,2.40
2022-11-17T01:27:34.791Z,3.23
2022-11-17T01:30:03.284Z,3.10
2022-11-17T01:32:37.244Z,3.43
2022-11-17T01:35:08.392Z,2.83
2022-11-17T01:37:37.473Z,3.10
2022-11-17T01:40:06.326Z,2.60
2022-11-17T01:42:35.401Z,2.93
2022-11-17T01:45:19.291Z,2.80
2022-11-17T01:47:50.610Z,3.20
2022-11-17T01:50:31.147Z,2.80
2022-11-17T01:53:05.252Z,2.70
2022-11-17T01:55:40.391Z,2.90
2022-11-17T01:58:12.706Z,3.00
2022-11-17T02:00:41.022Z,2.10
2022-11-17T02:03:11.266Z,3.07
2022-11-17T02:05:50.363Z,2.57
2022-11-17T02:08:22.388Z,2.60
2022-11-17T02:10:53.246Z,2.47
2022-11-17T02:13:23.369Z,2.77
2022-11-17T02:15:55.443Z,2.77
2022-11-17T02:18:24.371Z,2.40
2022-11-17T02:21:09.870Z,2.57
2022-11-17T02:23:58.359Z,2.50
2022-11-17T02:26:51.299Z,2.10
2022-11-17T02:29:26.417Z,2.10
2022-11-17T02:31:58.576Z,2.43
2022-11-17T02:34:40.417Z,2.60
2022-11-17T02:37:16.149Z,2.50
2022-11-17T02:39:53.440Z,2.60
2022-11-17T02:42:49.882Z,2.57
2022-11-17T02:45:22.457Z,2.60
2022-11-17T02:47:55.459Z,2.70
2022-11-17T02:50:28.414Z,2.20
2022-11-17T02:52:58.463Z,2.93
2022-11-17T02:55:29.229Z,2.30
2022-11-17T02:57:57.213Z,2.53
2022-11-17T03:00:33.258Z,2.80
2022-11-17T03:03:24.245Z,2.20
2022-11-17T03:06:05.461Z,2.57
2022-11-17T03:08:42.528Z,3.93
2022-11-17T03:11:11.842Z,2.57
2022-11-17T03:13:50.570Z,2.50
2022-11-17T03:16:26.944Z,3.10
2022-11-17T03:19:04.918Z,3.20
2022-11-17T03:21:37.723Z,2.50
2022-11-17T03:24:11.705Z,2.63
2022-11-17T03:26:42.651Z,2.73
2022-11-17T03:29:16.446Z,2.77
2022-11-17T03:31:48.383Z,2.60
2022-11-17T03:34:23.523Z,2.73
2022-11-17T03:36:56.394Z,2.97
2022-11-17T03:39:31.499Z,3.00
2022-11-17T03:42:04.019Z,2.80
2022-11-17T03:44:43.208Z,2.60
2022-11-17T03:47:15.413Z,2.60
2022-11-17T03:49:54.694Z,2.60
2022-11-17T03:52:25.141Z,2.87
2022-11-17T03:54:54.826Z,3.30
2022-11-17T03:57:28.688Z,2.73
2022-11-17T04:00:02.589Z,2.70
2022-11-17T04:02:44.299Z,2.80
2022-11-17T04:05:13.859Z,3.20
2022-11-17T04:07:43.760Z,2.60
2022-11-17T04:10:17.275Z,2.60
2022-11-17T04:13:03.270Z,2.50
2022-11-17T04:15:49.739Z,2.40
2022-11-17T04:18:21.066Z,2.30
2022-11-17T04:20:51.974Z,2.33
2022-11-17T04:23:19.974Z,5.30
2022-11-17T04:26:08.355Z,2.50
2022-11-17T04:28:38.507Z,2.50
2022-11-17T04:31:09.371Z,3.67
2022-11-17T04:33:42.605Z,2.67
2022-11-17T04:36:13.799Z,2.77
2022-11-17T04:38:43.744Z,3.43
2022-11-17T04:41:31.137Z,2.40
2022-11-17T04:44:02.529Z,2.80
2022-11-17T04:46:31.909Z,3.90
2022-11-17T04:49:05.592Z,3.27
2022-11-17T04:51:36.969Z,3.57
2022-11-17T04:54:07.454Z,2.73
2022-11-17T04:56:39.134Z,2.77
2022-11-17T04:59:07.825Z,2.90
2022-11-17T05:01:35.917Z,3.43
2022-11-17T05:04:08.462Z,2.60
2022-11-17T05:06:41.394Z,3.00
2022-11-17T05:09:14.538Z,2.60
2022-11-17T05:12:01.203Z,2.50
2022-11-17T05:14:31.344Z,2.60
2022-11-17T05:17:11.609Z,2.43
2022-11-17T05:19:44.339Z,2.33
2022-11-17T05:22:33.352Z,2.80
2022-11-17T05:25:01.969Z,2.70
2022-11-17T05:27:30.415Z,2.60
2022-11-17T05:29:58.349Z,3.30
2022-11-17T05:32:29.084Z,4.90
2022-11-17T05:34:59.457Z,2.70
2022-11-17T05:37:27.432Z,3.23
2022-11-17T05:39:56.451Z,3.37
2022-11-17T05:42:24.436Z,2.83
2022-11-17T05:44:55.974Z,3.17
2022-11-17T05:47:23.918Z,3.13
2022-11-17T05:49:52.236Z,3.00
2022-11-17T05:52:21.634Z,3.20
2022-11-17T05:54:50.462Z,4.80
2022-11-17T05:57:26.728Z,2.97
2022-11-17T05:59:59.642Z,2.60
2022-11-17T06:02:32.723Z,3.20
2022-11-17T06:05:01.465Z,2.60
2022-11-17T06:07:32.686Z,2.50
2022-11-17T06:10:01.473Z,2.50
2022-11-17T06:12:29.429Z,2.43
2022-11-17T06:15:00.951Z,2.90
2022-11-17T06:17:33.060Z,3.80
2022-11-17T06:20:09.142Z,2.40
2022-11-17T06:22:38.557Z,2.20
2022-11-17T06:25:11.545Z,4.20
2022-11-17T06:27:41.370Z,3.27
2022-11-17T06:30:10.167Z,4.37
2022-11-17T06:32:43.590Z,3.00
2022-11-17T06:35:14.272Z,2.17
2022-11-17T06:37:43.657Z,6.80
2022-11-17T06:40:13.505Z,2.30
2022-11-17T06:42:59.109Z,3.00
2022-11-17T06:45:28.467Z,2.87
2022-11-17T06:47:57.156Z,2.33
2022-11-17T06:50:25.191Z,2.37
2022-11-17T06:53:01.510Z,2.60
2022-11-17T06:55:30.356Z,3.67
2022-11-17T06:58:02.351Z,2.27
2022-11-17T07:00:34.569Z,2.50
2022-11-17T07:03:04.560Z,2.77
2022-11-17T07:05:32.956Z,2.53
2022-11-17T07:08:04.540Z,2.47
2022-11-17T07:10:36.284Z,3.00
2022-11-17T07:13:04.328Z,2.40
2022-11-17T07:15:33.499Z,5.20
2022-11-17T07:18:02.497Z,2.60
2022-11-17T07:20:30.449Z,2.77
2022-11-17T07:23:00.908Z,2.60
2022-11-17T07:25:32.604Z,2.90
2022-11-17T07:28:01.516Z,3.57
2022-11-17T07:30:29.532Z,4.43
2022-11-17T07:33:00.157Z,2.67
2022-11-17T07:35:28.292Z,3.20
2022-11-17T07:38:01.945Z,3.00
2022-11-17T07:40:29.996Z,2.93
2022-11-17T07:42:59.788Z,3.33
2022-11-17T07:45:31.843Z,5.33
2022-11-17T07:48:01.803Z,3.53
2022-11-17T07:50:31.053Z,5.97
2022-11-17T07:52:59.494Z,5.53
2022-11-17T07:55:27.554Z,4.93
2022-11-17T07:57:57.017Z,3.20
2022-11-17T08:00:29.380Z,4.03
2022-11-17T08:03:01.507Z,3.30
2022-11-17T08:05:30.772Z,6.17
2022-11-17T08:08:04.463Z,4.33
2022-11-17T08:10:32.771Z,4.50
2022-11-17T08:13:02.228Z,3.10
2022-11-17T08:15:32.425Z,5.23
2022-11-17T08:18:01.490Z,4.50
2022-11-17T08:20:31.288Z,4.37
2022-11-17T08:23:01.081Z,4.23
2022-11-17T08:25:29.528Z,7.53
2022-11-17T08:27:59.495Z,3.93
2022-11-17T08:30:28.673Z,4.53
2022-11-17T08:33:01.511Z,4.00
2022-11-17T08:35:34.334Z,4.20
2022-11-17T08:38:07.546Z,4.57
2022-11-17T08:40:35.502Z,5.87
2022-11-17T08:43:05.102Z,6.17
2022-11-17T08:45:33.218Z,6.20
2022-11-17T08:48:04.089Z,4.33
2022-11-17T08:50:36.073Z,4.13
2022-11-17T08:53:04.007Z,3.80
2022-11-17T08:55:34.595Z,5.83
2022-11-17T08:58:05.369Z,4.83
2022-11-17T09:00:33.351Z,4.57
2022-11-17T09:03:07.145Z,5.40
2022-11-17T09:05:38.433Z,4.43
2022-11-17T09:08:43.519Z,4.17
2022-11-17T09:11:00.165Z,4.60
2022-11-17T09:13:28.241Z,4.23
2022-11-17T09:16:01.796Z,4.63
2022-11-17T09:18:31.604Z,4.57
2022-11-17T09:21:02.523Z,6.03
2022-11-17T09:23:34.937Z,5.23
2022-11-17T09:26:06.312Z,5.23
2022-11-17T09:28:34.828Z,5.10
2022-11-17T09:31:07.533Z,5.53
2022-11-17T09:33:37.478Z,5.30
2022-11-17T09:36:07.388Z,5.90
2022-11-17T09:38:38.223Z,5.43
2022-11-17T09:41:23.413Z,8.13
2022-11-17T09:43:58.666Z,7.20
2022-11-17T09:46:32.844Z,6.20
2022-11-17T09:49:11.382Z,6.33
2022-11-17T09:51:46.658Z,6.53
2022-11-17T09:54:22.724Z,8.27
2022-11-17T09:56:52.438Z,7.10
2022-11-17T09:59:22.589Z,6.70
2022-11-17T10:01:51.209Z,6.03
2022-11-17T10:04:21.080Z,5.33
2022-11-17T10:06:51.994Z,7.40
2022-11-17T10:09:26.223Z,5.77
2022-11-17T10:12:00.846Z,5.90
2022-11-17T10:14:30.244Z,6.83
2022-11-17T10:17:00.170Z,10.97
2022-11-17T10:19:32.551Z,6.77
2022-11-17T10:22:20.709Z,6.77
2022-11-17T10:24:51.688Z,6.60
2022-11-17T10:27:24.902Z,12.53
2022-11-17T10:30:05.597Z,6.60
2022-11-17T10:32:42.677Z,6.57
2022-11-17T10:35:19.749Z,6.37
2022-11-17T10:37:55.556Z,6.50
2022-11-17T10:40:26.268Z,5.63
2022-11-17T10:43:05.144Z,6.73
2022-11-17T10:45:33.799Z,6.10
2022-11-17T10:48:24.331Z,7.33
2022-11-17T10:50:55.946Z,6.40
2022-11-17T10:53:34.970Z,7.67
2022-11-17T10:56:14.167Z,7.30
2022-11-17T10:59:04.936Z,8.10
2022-11-17T11:01:36.569Z,6.67
2022-11-17T11:04:07.543Z,7.07
2022-11-17T11:06:37.530Z,6.47
2022-11-17T11:09:12.768Z,9.23
2022-11-17T11:11:46.619Z,7.07
2022-11-17T11:14:23.051Z,8.70
2022-11-17T11:16:52.105Z,5.67
2022-11-17T11:19:21.164Z,7.43
2022-11-17T11:22:19.750Z,6.73
2022-11-17T11:24:56.073Z,6.77
2022-11-17T11:27:36.313Z,6.03
2022-11-17T11:30:07.060Z,6.33
2022-11-17T11:32:49.261Z,6.13
2022-11-17T11:35:36.185Z,8.37
2022-11-17T11:38:17.511Z,5.80
2022-11-17T11:40:56.973Z,5.80
2022-11-17T11:43:34.121Z,5.47
2022-11-17T11:46:12.032Z,9.60
2022-11-17T11:48:42.266Z,6.13
2022-11-17T11:51:17.627Z,7.80
2022-11-17T11:53:55.663Z,6.77
2022-11-17T11:56:33.061Z,4.80
2022-11-17T11:59:07.449Z,5.23
2022-11-17T12:01:45.367Z,4.80
2022-11-17T12:04:26.187Z,8.17
2022-11-17T12:07:00.271Z,7.20
2022-11-17T12:09:49.527Z,5.90
2022-11-17T12:12:20.360Z,6.27
2022-11-17T12:15:14.566Z,4.87
2022-11-17T12:17:59.405Z,5.20
2022-11-17T12:20:53.836Z,6.97
2022-11-17T12:23:48.714Z,6.23
2022-11-17T12:26:27.423Z,6.27
2022-11-17T12:29:30.787Z,4.60
2022-11-17T12:32:03.559Z,4.77
2022-11-17T12:34:33.905Z,4.40
2022-11-17T12:37:18.844Z,4.63
2022-11-17T12:40:08.023Z,4.87
2022-11-17T12:42:38.070Z,4.33
2022-11-17T12:45:14.267Z,4.83
2022-11-17T12:47:54.815Z,5.03
2022-11-17T12:51:03.406Z,5.30
2022-11-17T12:53:39.635Z,5.17
2022-11-17T12:56:27.870Z,4.83
2022-11-17T12:59:19.539Z,5.63
2022-11-17T13:01:57.008Z,6.17
2022-11-17T13:04:34.648Z,5.83
2022-11-17T13:07:04.343Z,6.20
2022-11-17T13:09:34.369Z,4.20
2022-11-17T13:12:04.318Z,6.20
2022-11-17T13:14:38.628Z,7.83
2022-11-17T13:17:12.356Z,4.90
2022-11-17T13:19:43.052Z,4.37
2022-11-17T13:22:17.174Z,7.03
2022-11-17T13:24:52.208Z,5.40
2022-11-17T13:27:24.619Z,5.40
2022-11-17T13:30:13.763Z,7.13
2022-11-17T13:32:42.280Z,4.77
2022-11-17T13:35:29.411Z,4.50
2022-11-17T13:38:06.359Z,7.00
2022-11-17T13:40:37.595Z,5.60
2022-11-17T13:43:10.190Z,24.40
2022-11-17T13:45:40.476Z,5.80
2022-11-17T13:48:30.882Z,4.90
2022-11-17T13:51:17.626Z,5.77
2022-11-17T13:53:48.650Z,4.60
2022-11-17T13:56:35.465Z,4.40
2022-11-17T13:59:19.418Z,6.00
2022-11-17T14:01:48.950Z,4.77
2022-11-17T14:04:20.715Z,4.23
2022-11-17T14:06:57.536Z,4.83
2022-11-17T14:09:27.687Z,5.00
2022-11-17T14:11:56.685Z,9.13
2022-11-17T14:14:31.608Z,4.47
2022-11-17T14:17:12.723Z,9.83
2022-11-17T14:19:41.763Z,7.43
2022-11-17T14:22:31.988Z,5.13
2022-11-17T14:25:00.733Z,8.93
2022-11-17T14:27:40.712Z,6.70
2022-11-17T14:30:15.795Z,6.67
2022-11-17T14:32:45.693Z,6.27
2022-11-17T14:37:49.697Z,8.60
2022-11-17T14:40:22.447Z,10.47
2022-11-17T14:42:50.487Z,10.03
2022-11-17T14:45:19.649Z,9.27
2022-11-17T14:47:49.568Z,8.43
2022-11-17T14:50:19.607Z,11.13
2022-11-17T14:52:50.322Z,12.90
2022-11-17T14:55:19.242Z,10.30
2022-11-17T14:57:48.881Z,10.03
2022-11-17T15:00:20.515Z,6.80
2022-11-17T15:02:54.761Z,6.07
2022-11-17T15:05:23.599Z,6.80
2022-11-17T15:07:51.542Z,6.37
2022-11-17T15:10:20.084Z,11.10
2022-11-17T15:12:48.128Z,6.47
2022-11-17T15:15:16.260Z,9.93
2022-11-17T15:17:44.242Z,6.57
2022-11-17T15:20:14.913Z,7.93
2022-11-17T15:22:42.853Z,10.20
2022-11-17T15:25:11.095Z,5.30
2022-11-17T15:27:39.143Z,7.03
2022-11-17T15:30:08.579Z,6.73
2022-11-17T15:32:37.669Z,8.57
2022-11-17T15:35:08.293Z,6.83
2022-11-17T15:37:37.785Z,6.30
2022-11-17T15:40:06.802Z,7.20
2022-11-17T15:42:35.377Z,9.93
2022-11-17T15:45:03.534Z,9.30
2022-11-17T15:47:31.645Z,10.23
2022-11-17T15:50:02.372Z,40.70
2022-11-17T15:52:49.110Z,20.67
2022-11-17T15:55:20.097Z,15.17
2022-11-17T15:57:48.115Z,16.13
2022-11-17T16:00:19.853Z,17.73
2022-11-17T16:02:47.942Z,18.63
2022-11-17T16:05:16.137Z,14.07
2022-11-17T16:10:20.348Z,16.87
2022-11-17T16:12:49.698Z,18.57
2022-11-17T16:15:17.802Z,18.30
2022-11-17T16:17:45.757Z,23.27
2022-11-17T16:20:14.182Z,22.10
2022-11-17T16:22:42.162Z,20.90
2022-11-17T16:25:10.877Z,18.83
2022-11-17T16:27:41.051Z,23.27
2022-11-17T16:30:13.082Z,23.03
2022-11-17T16:32:41.159Z,22.93
2022-11-17T16:35:09.512Z,23.40
2022-11-17T16:37:37.766Z,25.03
2022-11-17T16:40:09.632Z,23.67
2022-11-17T16:42:37.758Z,24.97
2022-11-17T16:45:06.854Z,20.90
2022-11-17T16:47:36.515Z,24.47
2022-11-17T16:50:04.807Z,21.90
2022-11-17T16:52:35.262Z,29.70
2022-11-17T16:55:05.062Z,30.37
2022-11-17T16:57:33.537Z,30.17
2022-11-17T17:00:01.546Z,35.13
2022-11-17T17:02:29.742Z,46.73
2022-11-17T17:04:59.316Z,55.97
2022-11-17T17:07:27.428Z,61.07
2022-11-17T17:09:58.373Z,68.63
2022-11-17T17:12:26.527Z,57.47
2022-11-17T17:14:54.537Z,44.00
2022-11-17T17:17:22.560Z,38.73
2022-11-17T17:19:50.756Z,30.67
2022-11-17T17:22:20.023Z,34.10
2022-11-17T17:24:48.023Z,28.23
2022-11-17T17:27:16.227Z,33.03
2022-11-17T17:29:47.313Z,34.00
2022-11-17T17:32:15.401Z,30.80
2022-11-17T17:34:43.575Z,36.33
2022-11-17T17:37:11.525Z,29.40
2022-11-17T17:39:41.083Z,34.33
2022-11-17T17:42:09.085Z,26.73
2022-11-17T17:44:37.162Z,31.97
2022-11-17T17:47:08.355Z,31.87
2022-11-17T17:49:36.337Z,31.70
2022-11-17T17:52:08.485Z,29.87
2022-11-17T17:54:44.517Z,34.33
2022-11-17T17:57:13.705Z,33.90
2022-11-17T17:59:42.787Z,32.30
2022-11-17T18:02:10.980Z,35.07
2022-11-17T18:04:38.991Z,34.07
2022-11-17T18:07:07.074Z,34.00
2022-11-17T18:09:35.193Z,34.57
2022-11-17T18:12:05.799Z,34.73
2022-11-17T18:14:33.840Z,32.77
2022-11-17T18:17:01.878Z,32.77
2022-11-17T18:19:32.920Z,31.23
2022-11-17T18:22:01.728Z,34.47
2022-11-17T18:24:32.388Z,39.83
2022-11-17T18:27:00.469Z,34.43
2022-11-17T18:29:29.887Z,33.43
2022-11-17T18:31:57.900Z,35.63
2022-11-17T18:34:26.498Z,33.90
2022-11-17T18:36:56.581Z,31.20
2022-11-17T18:39:28.358Z,30.90
2022-11-17T18:41:57.464Z,33.30
2022-11-17T18:44:25.608Z,29.20
2022-11-17T18:46:59.628Z,29.77
2022-11-17T18:49:31.707Z,40.10
2022-11-17T18:51:59.710Z,33.60
2022-11-17T18:54:27.872Z,33.53
2022-11-17T18:56:56.250Z,25.63
2022-11-17T18:59:24.252Z,27.73
2022-11-17T19:01:52.329Z,28.00
2022-11-17T19:04:23.143Z,31.50
2022-11-17T19:06:51.333Z,30.33
2022-11-17T19:09:19.754Z,28.10
2022-11-17T19:11:47.831Z,28.70
2022-11-17T19:14:15.964Z,28.93
2022-11-17T19:16:45.328Z,30.30
2022-11-17T19:19:15.197Z,27.53
2022-11-17T19:21:47.901Z,30.70
2022-11-17T19:24:16.975Z,28.77
2022-11-17T19:26:45.705Z,34.00
2022-11-17T19:29:17.186Z,31.67
2022-11-17T19:31:46.390Z,31.40
2022-11-17T19:34:15.968Z,30.20
2022-11-17T19:36:45.839Z,28.93
2022-11-17T19:39:15.057Z,29.20
2022-11-17T19:41:43.747Z,29.70
2022-11-17T19:44:13.137Z,33.70
2022-11-17T19:46:41.085Z,28.23
2022-11-17T19:49:09.973Z,34.23
2022-11-17T19:51:38.480Z,30.00
2022-11-17T19:54:09.280Z,30.83
2022-11-17T19:56:38.475Z,31.23
2022-11-17T19:59:10.981Z,32.80
2022-11-17T20:01:42.337Z,24.70
2022-11-17T20:04:10.496Z,17.93
2022-11-17T20:06:39.930Z,20.97
2022-11-17T20:09:13.268Z,23.03
2022-11-17T20:11:42.636Z,24.87
2022-11-17T20:14:11.768Z,27.10
2022-11-17T20:16:39.768Z,24.93
2022-11-17T20:19:10.521Z,26.67
2022-11-17T20:21:38.746Z,25.13
2022-11-17T20:24:09.046Z,24.23
2022-11-17T20:26:40.875Z,19.30
2022-11-17T20:29:09.019Z,20.93
2022-11-17T20:31:40.052Z,20.83
2022-11-17T20:34:08.117Z,27.03
2022-11-17T20:36:36.226Z,23.40
2022-11-17T20:39:06.558Z,16.70
2022-11-17T20:41:35.074Z,16.17
2022-11-17T20:44:23.939Z,16.27
2022-11-17T20:46:54.891Z,12.63
2022-11-17T20:49:23.361Z,13.43
2022-11-17T20:51:51.557Z,16.07
2022-11-17T20:54:19.869Z,24.70
2022-11-17T20:56:48.635Z,31.57
2022-11-17T20:59:22.300Z,27.90
2022-11-17T21:01:50.623Z,24.90
2022-11-17T21:04:18.628Z,26.20
2022-11-17T21:06:46.611Z,25.13
2022-11-17T21:09:14.828Z,37.27
2022-11-17T21:11:58.371Z,28.23
2022-11-17T21:14:28.665Z,26.40
2022-11-17T21:17:00.505Z,22.50
2022-11-17T21:19:29.584Z,23.10
2022-11-17T21:21:57.561Z,25.37
2022-11-17T21:24:28.159Z,32.13
2022-11-17T21:26:57.031Z,24.47
2022-11-17T21:29:25.357Z,24.37
2022-11-17T21:31:54.987Z,27.07
2022-11-17T21:34:23.345Z,25.87
2022-11-17T21:36:51.366Z,25.97
2022-11-17T21:39:19.834Z,24.93
2022-11-17T21:41:47.948Z,29.70
2022-11-17T21:44:15.940Z,28.80
2022-11-17T21:46:44.058Z,23.80
2022-11-17T21:49:16.936Z,30.63
2022-11-17T21:51:45.520Z,26.17
2022-11-17T21:54:13.831Z,26.47
2022-11-17T21:56:41.941Z,25.73
2022-11-17T21:59:13.361Z,24.03
2022-11-17T22:01:41.707Z,27.27
2022-11-17T22:04:11.580Z,28.13
2022-11-17T22:06:41.023Z,28.77
2022-11-17T22:09:11.453Z,27.07
2022-11-17T22:11:40.169Z,25.00
2022-11-17T22:14:15.273Z,29.10
2022-11-17T22:16:46.646Z,24.53
2022-11-17T22:19:17.292Z,24.23
2022-11-17T22:21:51.987Z,29.93
2022-11-17T22:24:21.203Z,26.63
2022-11-17T22:26:51.650Z,24.03
2022-11-17T22:29:22.811Z,26.97
2022-11-17T22:31:51.035Z,27.20
2022-11-17T22:34:21.434Z,24.90
2022-11-17T22:36:51.671Z,27.03
2022-11-17T22:39:20.807Z,25.97
2022-11-17T22:41:48.963Z,28.03
2022-11-17T22:44:17.775Z,25.43
2022-11-17T22:46:49.765Z,26.50
2022-11-17T22:49:18.794Z,27.13
2022-11-17T22:52:07.673Z,24.93
2022-11-17T22:54:37.083Z,29.37
2022-11-17T22:57:05.797Z,28.77
2022-11-17T22:59:34.801Z,26.13
2022-11-17T23:02:03.201Z,26.70
2022-11-17T23:04:31.789Z,28.27
2022-11-17T23:09:54.765Z,26.90
2022-11-17T23:12:25.003Z,25.47
2022-11-17T23:14:53.065Z,24.40
2022-11-17T23:17:24.777Z,27.03
2022-11-17T23:19:52.920Z,26.27
2022-11-17T23:22:20.898Z,26.67
2022-11-17T23:24:49.688Z,25.23
2022-11-17T23:27:20.198Z,25.20
2022-11-17T23:29:51.259Z,24.97
2022-11-17T23:32:20.653Z,22.40
2022-11-17T23:34:48.675Z,23.77
2022-11-17T23:37:21.872Z,23.53
2022-11-17T23:39:49.801Z,23.93
2022-11-17T23:42:21.069Z,20.63
2022-11-17T23:44:49.329Z,21.80
2022-11-17T23:47:17.392Z,17.67
2022-11-17T23:49:49.778Z,16.73
2022-11-17T23:52:18.688Z,15.73
2022-11-17T23:54:48.515Z,16.63
2022-11-17T23:57:18.738Z,15.77
2022-11-17T23:59:51.374Z,15.43
